sensor_id;sensor_type;location;lat;lon;timestamp;temperature;humidity
38020;DHT22;23829;51.350;17.286;2023-05-19T00:02:24;24.30;39.50
38020;DHT22;23829;51.350;17.286;2023-05-19T00:04:51;24.20;39.60
38020;DHT22;23829;51.350;17.286;2023-05-19T00:07:18;24.20;39.70
38020;DHT22;23829;51.350;17.286;2023-05-19T00:09:47;24.20;39.70
38020;DHT22;23829;51.350;17.286;2023-05-19T00:12:14;24.10;39.70
38020;DHT22;23829;51.350;17.286;2023-05-19T00:14:40;24.10;39.80
38020;DHT22;23829;51.350;17.286;2023-05-19T00:17:07;23.90;40.10
38020;DHT22;23829;51.350;17.286;2023-05-19T00:19:34;23.90;40.20
38020;DHT22;23829;51.350;17.286;2023-05-19T00:22:00;23.80;40.50
38020;DHT22;23829;51.350;17.286;2023-05-19T00:24:27;23.80;40.60
38020;DHT22;23829;51.350;17.286;2023-05-19T00:26:53;23.80;40.50
38020;DHT22;23829;51.350;17.286;2023-05-19T00:29:20;23.70;40.90
38020;DHT22;23829;51.350;17.286;2023-05-19T00:31:46;23.60;40.90
38020;DHT22;23829;51.350;17.286;2023-05-19T00:34:13;23.70;40.80
38020;DHT22;23829;51.350;17.286;2023-05-19T00:36:39;23.60;40.90
38020;DHT22;23829;51.350;17.286;2023-05-19T00:39:06;23.70;40.80
38020;DHT22;23829;51.350;17.286;2023-05-19T00:41:32;23.70;40.80
38020;DHT22;23829;51.350;17.286;2023-05-19T00:43:59;23.90;40.70
38020;DHT22;23829;51.350;17.286;2023-05-19T00:46:25;23.90;40.30
38020;DHT22;23829;51.350;17.286;2023-05-19T00:48:51;23.70;40.60
38020;DHT22;23829;51.350;17.286;2023-05-19T00:51:18;23.50;40.90
38020;DHT22;23829;51.350;17.286;2023-05-19T00:53:45;23.60;40.80
38020;DHT22;23829;51.350;17.286;2023-05-19T00:56:15;23.70;40.70
38020;DHT22;23829;51.350;17.286;2023-05-19T00:58:45;23.60;40.90
38020;DHT22;23829;51.350;17.286;2023-05-19T01:01:11;23.60;41.20
38020;DHT22;23829;51.350;17.286;2023-05-19T01:03:40;23.60;40.80
38020;DHT22;23829;51.350;17.286;2023-05-19T01:06:08;23.80;40.90
38020;DHT22;23829;51.350;17.286;2023-05-19T01:08:37;23.80;40.40
38020;DHT22;23829;51.350;17.286;2023-05-19T01:11:07;23.80;40.40
38020;DHT22;23829;51.350;17.286;2023-05-19T01:13:34;23.80;40.40
38020;DHT22;23829;51.350;17.286;2023-05-19T01:16:09;23.80;40.30
38020;DHT22;23829;51.350;17.286;2023-05-19T01:18:42;24.20;40.00
38020;DHT22;23829;51.350;17.286;2023-05-19T01:24:21;23.90;40.10
38020;DHT22;23829;51.350;17.286;2023-05-19T01:32:40;24.10;40.10
38020;DHT22;23829;51.350;17.286;2023-05-19T01:35:08;24.10;40.20
38020;DHT22;23829;51.350;17.286;2023-05-19T01:37:36;24.20;40.10
38020;DHT22;23829;51.350;17.286;2023-05-19T01:40:06;24.20;40.20
38020;DHT22;23829;51.350;17.286;2023-05-19T01:42:32;24.10;40.50
38020;DHT22;23829;51.350;17.286;2023-05-19T01:45:05;24.50;40.00
38020;DHT22;23829;51.350;17.286;2023-05-19T01:47:39;24.50;39.80
38020;DHT22;23829;51.350;17.286;2023-05-19T01:50:06;24.60;39.90
38020;DHT22;23829;51.350;17.286;2023-05-19T01:52:33;24.80;39.50
38020;DHT22;23829;51.350;17.286;2023-05-19T01:54:59;24.80;39.40
38020;DHT22;23829;51.350;17.286;2023-05-19T01:57:42;25.00;39.30
38020;DHT22;23829;51.350;17.286;2023-05-19T02:08:41;24.80;39.20
38020;DHT22;23829;51.350;17.286;2023-05-19T02:11:45;24.80;39.40
38020;DHT22;23829;51.350;17.286;2023-05-19T02:14:19;24.50;39.70
38020;DHT22;23829;51.350;17.286;2023-05-19T02:16:47;24.50;39.70
38020;DHT22;23829;51.350;17.286;2023-05-19T02:19:25;24.40;39.90
38020;DHT22;23829;51.350;17.286;2023-05-19T02:21:54;24.30;40.10
38020;DHT22;23829;51.350;17.286;2023-05-19T02:24:21;24.30;40.40
38020;DHT22;23829;51.350;17.286;2023-05-19T02:26:49;24.60;39.90
38020;DHT22;23829;51.350;17.286;2023-05-19T02:29:15;24.60;39.70
38020;DHT22;23829;51.350;17.286;2023-05-19T02:31:42;24.80;39.30
38020;DHT22;23829;51.350;17.286;2023-05-19T02:34:08;24.70;39.30
38020;DHT22;23829;51.350;17.286;2023-05-19T02:36:39;25.00;39.10
38020;DHT22;23829;51.350;17.286;2023-05-19T02:39:09;25.20;38.80
38020;DHT22;23829;51.350;17.286;2023-05-19T02:41:37;25.30;38.50
38020;DHT22;23829;51.350;17.286;2023-05-19T02:44:03;25.40;38.20
38020;DHT22;23829;51.350;17.286;2023-05-19T02:46:30;25.50;37.80
38020;DHT22;23829;51.350;17.286;2023-05-19T02:48:57;25.40;38.10
38020;DHT22;23829;51.350;17.286;2023-05-19T02:51:24;25.40;38.00
38020;DHT22;23829;51.350;17.286;2023-05-19T02:53:50;25.40;38.10
38020;DHT22;23829;51.350;17.286;2023-05-19T02:56:17;25.50;37.50
38020;DHT22;23829;51.350;17.286;2023-05-19T02:58:43;25.40;37.60
38020;DHT22;23829;51.350;17.286;2023-05-19T03:01:10;25.20;38.10
38020;DHT22;23829;51.350;17.286;2023-05-19T03:03:37;25.00;38.20
38020;DHT22;23829;51.350;17.286;2023-05-19T03:06:03;24.90;38.40
38020;DHT22;23829;51.350;17.286;2023-05-19T03:08:34;24.80;38.60
38020;DHT22;23829;51.350;17.286;2023-05-19T03:11:01;24.40;39.10
38020;DHT22;23829;51.350;17.286;2023-05-19T03:13:28;24.40;39.20
38020;DHT22;23829;51.350;17.286;2023-05-19T03:15:55;24.30;39.30
38020;DHT22;23829;51.350;17.286;2023-05-19T03:18:26;24.60;39.40
38020;DHT22;23829;51.350;17.286;2023-05-19T03:20:53;24.70;39.00
38020;DHT22;23829;51.350;17.286;2023-05-19T03:23:22;24.60;39.00
38020;DHT22;23829;51.350;17.286;2023-05-19T03:25:49;24.80;39.00
38020;DHT22;23829;51.350;17.286;2023-05-19T03:28:15;24.80;38.90
38020;DHT22;23829;51.350;17.286;2023-05-19T03:30:42;24.80;38.80
38020;DHT22;23829;51.350;17.286;2023-05-19T03:33:16;25.10;38.40
38020;DHT22;23829;51.350;17.286;2023-05-19T03:35:44;24.90;38.70
38020;DHT22;23829;51.350;17.286;2023-05-19T03:38:10;24.80;38.90
38020;DHT22;23829;51.350;17.286;2023-05-19T03:40:38;24.40;39.30
38020;DHT22;23829;51.350;17.286;2023-05-19T03:43:09;24.70;39.20
38020;DHT22;23829;51.350;17.286;2023-05-19T03:45:43;24.50;39.20
38020;DHT22;23829;51.350;17.286;2023-05-19T03:48:41;24.80;39.10
38020;DHT22;23829;51.350;17.286;2023-05-19T03:51:26;25.50;38.20
38020;DHT22;23829;51.350;17.286;2023-05-19T03:54:01;25.30;38.30
38020;DHT22;23829;51.350;17.286;2023-05-19T03:56:27;24.80;38.80
38020;DHT22;23829;51.350;17.286;2023-05-19T03:58:54;25.00;39.00
38020;DHT22;23829;51.350;17.286;2023-05-19T04:01:21;25.00;39.20
38020;DHT22;23829;51.350;17.286;2023-05-19T04:03:47;25.30;38.40
38020;DHT22;23829;51.350;17.286;2023-05-19T04:06:14;25.20;39.60
38020;DHT22;23829;51.350;17.286;2023-05-19T04:08:40;25.60;38.30
38020;DHT22;23829;51.350;17.286;2023-05-19T04:11:06;25.10;38.80
38020;DHT22;23829;51.350;17.286;2023-05-19T04:13:33;25.60;38.20
38020;DHT22;23829;51.350;17.286;2023-05-19T04:15:59;25.30;38.60
38020;DHT22;23829;51.350;17.286;2023-05-19T04:18:26;25.50;38.30
38020;DHT22;23829;51.350;17.286;2023-05-19T04:20:53;25.60;38.30
38020;DHT22;23829;51.350;17.286;2023-05-19T04:23:19;25.70;37.80
38020;DHT22;23829;51.350;17.286;2023-05-19T04:25:45;25.60;38.50
38020;DHT22;23829;51.350;17.286;2023-05-19T04:28:14;25.90;38.10
38020;DHT22;23829;51.350;17.286;2023-05-19T04:30:40;26.20;38.00
38020;DHT22;23829;51.350;17.286;2023-05-19T04:33:07;26.00;37.80
38020;DHT22;23829;51.350;17.286;2023-05-19T04:35:40;25.30;38.70
38020;DHT22;23829;51.350;17.286;2023-05-19T04:38:09;25.60;38.50
38020;DHT22;23829;51.350;17.286;2023-05-19T04:40:37;25.20;39.30
38020;DHT22;23829;51.350;17.286;2023-05-19T04:43:05;25.10;39.40
38020;DHT22;23829;51.350;17.286;2023-05-19T04:45:33;25.10;39.60
38020;DHT22;23829;51.350;17.286;2023-05-19T04:48:01;25.30;39.50
38020;DHT22;23829;51.350;17.286;2023-05-19T04:50:27;25.80;38.70
38020;DHT22;23829;51.350;17.286;2023-05-19T04:52:56;25.80;38.80
38020;DHT22;23829;51.350;17.286;2023-05-19T04:55:24;26.00;38.20
38020;DHT22;23829;51.350;17.286;2023-05-19T04:57:51;25.70;38.40
38020;DHT22;23829;51.350;17.286;2023-05-19T05:00:20;25.30;39.20
38020;DHT22;23829;51.350;17.286;2023-05-19T05:02:55;25.60;38.40
38020;DHT22;23829;51.350;17.286;2023-05-19T05:05:27;25.30;39.10
38020;DHT22;23829;51.350;17.286;2023-05-19T05:07:53;25.70;38.80
38020;DHT22;23829;51.350;17.286;2023-05-19T05:10:21;25.10;39.40
38020;DHT22;23829;51.350;17.286;2023-05-19T05:12:48;24.90;40.80
38020;DHT22;23829;51.350;17.286;2023-05-19T05:15:16;25.10;39.70
38020;DHT22;23829;51.350;17.286;2023-05-19T05:17:43;24.70;40.50
38020;DHT22;23829;51.350;17.286;2023-05-19T05:20:10;24.80;40.80
38020;DHT22;23829;51.350;17.286;2023-05-19T05:22:38;24.70;40.30
38020;DHT22;23829;51.350;17.286;2023-05-19T05:25:05;24.60;41.10
38020;DHT22;23829;51.350;17.286;2023-05-19T05:27:32;24.80;40.40
38020;DHT22;23829;51.350;17.286;2023-05-19T05:29:59;25.30;39.90
38020;DHT22;23829;51.350;17.286;2023-05-19T05:32:27;24.60;41.20
38020;DHT22;23829;51.350;17.286;2023-05-19T05:34:54;24.90;41.00
38020;DHT22;23829;51.350;17.286;2023-05-19T05:37:21;24.60;41.50
38020;DHT22;23829;51.350;17.286;2023-05-19T05:39:48;24.30;41.60
38020;DHT22;23829;51.350;17.286;2023-05-19T05:42:14;24.40;41.70
38020;DHT22;23829;51.350;17.286;2023-05-19T05:44:41;25.00;41.00
38020;DHT22;23829;51.350;17.286;2023-05-19T05:47:09;25.00;40.50
38020;DHT22;23829;51.350;17.286;2023-05-19T05:49:38;24.80;41.00
38020;DHT22;23829;51.350;17.286;2023-05-19T05:52:07;24.80;40.90
38020;DHT22;23829;51.350;17.286;2023-05-19T05:54:41;24.70;41.60
38020;DHT22;23829;51.350;17.286;2023-05-19T05:57:09;24.80;41.50
38020;DHT22;23829;51.350;17.286;2023-05-19T05:59:36;25.60;40.00
38020;DHT22;23829;51.350;17.286;2023-05-19T06:02:03;25.60;39.50
38020;DHT22;23829;51.350;17.286;2023-05-19T06:04:30;25.40;40.10
38020;DHT22;23829;51.350;17.286;2023-05-19T06:06:57;25.40;39.80
38020;DHT22;23829;51.350;17.286;2023-05-19T06:09:28;25.70;39.80
38020;DHT22;23829;51.350;17.286;2023-05-19T06:11:57;25.80;39.50
38020;DHT22;23829;51.350;17.286;2023-05-19T06:14:27;25.70;40.00
38020;DHT22;23829;51.350;17.286;2023-05-19T06:17:17;25.80;38.90
38020;DHT22;23829;51.350;17.286;2023-05-19T06:19:44;26.50;37.70
38020;DHT22;23829;51.350;17.286;2023-05-19T06:22:10;26.20;37.90
38020;DHT22;23829;51.350;17.286;2023-05-19T06:24:37;26.30;38.10
38020;DHT22;23829;51.350;17.286;2023-05-19T06:27:04;26.10;38.40
38020;DHT22;23829;51.350;17.286;2023-05-19T06:29:30;26.00;38.50
38020;DHT22;23829;51.350;17.286;2023-05-19T06:32:01;25.90;38.70
38020;DHT22;23829;51.350;17.286;2023-05-19T06:34:27;25.90;38.90
38020;DHT22;23829;51.350;17.286;2023-05-19T06:36:54;26.20;39.00
38020;DHT22;23829;51.350;17.286;2023-05-19T06:39:21;26.40;39.00
38020;DHT22;23829;51.350;17.286;2023-05-19T06:41:48;26.70;38.20
38020;DHT22;23829;51.350;17.286;2023-05-19T06:44:34;26.40;38.40
38020;DHT22;23829;51.350;17.286;2023-05-19T06:47:00;26.80;37.80
38020;DHT22;23829;51.350;17.286;2023-05-19T06:49:27;26.40;37.70
38020;DHT22;23829;51.350;17.286;2023-05-19T06:51:55;26.90;37.50
38020;DHT22;23829;51.350;17.286;2023-05-19T06:54:21;26.90;37.20
38020;DHT22;23829;51.350;17.286;2023-05-19T07:33:26;16.20;59.80
38020;DHT22;23829;51.350;17.286;2023-05-19T08:05:17;16.80;57.30
38020;DHT22;23829;51.350;17.286;2023-05-19T08:07:44;23.70;45.00
38020;DHT22;23829;51.350;17.286;2023-05-19T08:44:51;17.10;57.80
38020;DHT22;23829;51.350;17.286;2023-05-19T08:47:17;24.10;44.80
38020;DHT22;23829;51.350;17.286;2023-05-19T08:49:46;24.60;43.90
38020;DHT22;23829;51.350;17.286;2023-05-19T08:52:50;24.70;43.60
38020;DHT22;23829;51.350;17.286;2023-05-19T08:57:51;25.30;42.80
38020;DHT22;23829;51.350;17.286;2023-05-19T09:00:18;25.70;42.70
38020;DHT22;23829;51.350;17.286;2023-05-19T09:02:48;26.40;41.30
38020;DHT22;23829;51.350;17.286;2023-05-19T09:05:18;26.50;40.70
38020;DHT22;23829;51.350;17.286;2023-05-19T09:07:45;26.40;41.00
38020;DHT22;23829;51.350;17.286;2023-05-19T09:10:13;26.50;40.80
38020;DHT22;23829;51.350;17.286;2023-05-19T09:12:45;26.60;40.50
38020;DHT22;23829;51.350;17.286;2023-05-19T09:15:17;26.50;40.80
38020;DHT22;23829;51.350;17.286;2023-05-19T09:17:45;26.50;40.90
38020;DHT22;23829;51.350;17.286;2023-05-19T09:20:14;26.50;40.80
38020;DHT22;23829;51.350;17.286;2023-05-19T09:22:43;26.80;40.40
38020;DHT22;23829;51.350;17.286;2023-05-19T09:25:20;27.20;39.40
38020;DHT22;23829;51.350;17.286;2023-05-19T09:27:48;27.00;39.80
38020;DHT22;23829;51.350;17.286;2023-05-19T09:30:18;26.70;39.60
38020;DHT22;23829;51.350;17.286;2023-05-19T09:32:45;26.70;40.00
38020;DHT22;23829;51.350;17.286;2023-05-19T09:35:12;27.00;39.80
38020;DHT22;23829;51.350;17.286;2023-05-19T09:37:42;28.10;37.40
38020;DHT22;23829;51.350;17.286;2023-05-19T09:40:09;27.10;38.20
38020;DHT22;23829;51.350;17.286;2023-05-19T09:42:37;26.30;39.80
38020;DHT22;23829;51.350;17.286;2023-05-19T09:45:04;27.00;38.70
38020;DHT22;23829;51.350;17.286;2023-05-19T09:47:38;27.20;38.70
38020;DHT22;23829;51.350;17.286;2023-05-19T09:50:08;27.60;38.10
38020;DHT22;23829;51.350;17.286;2023-05-19T09:52:38;27.70;37.80
38020;DHT22;23829;51.350;17.286;2023-05-19T09:55:09;27.40;37.60
38020;DHT22;23829;51.350;17.286;2023-05-19T09:57:37;27.10;38.30
38020;DHT22;23829;51.350;17.286;2023-05-19T10:02:42;27.30;37.70
38020;DHT22;23829;51.350;17.286;2023-05-19T10:05:15;27.80;36.80
38020;DHT22;23829;51.350;17.286;2023-05-19T10:07:52;27.70;37.20
38020;DHT22;23829;51.350;17.286;2023-05-19T10:10:20;27.70;37.40
38020;DHT22;23829;51.350;17.286;2023-05-19T10:12:48;27.30;37.80
38020;DHT22;23829;51.350;17.286;2023-05-19T10:15:16;27.00;38.40
38020;DHT22;23829;51.350;17.286;2023-05-19T10:17:44;26.90;38.90
38020;DHT22;23829;51.350;17.286;2023-05-19T10:20:13;27.10;38.80
38020;DHT22;23829;51.350;17.286;2023-05-19T10:22:41;26.80;39.20
38020;DHT22;23829;51.350;17.286;2023-05-19T10:25:08;27.50;38.20
38020;DHT22;23829;51.350;17.286;2023-05-19T10:28:06;27.50;38.20
38020;DHT22;23829;51.350;17.286;2023-05-19T10:30:38;26.70;39.30
38020;DHT22;23829;51.350;17.286;2023-05-19T10:33:07;26.70;39.80
38020;DHT22;23829;51.350;17.286;2023-05-19T10:36:22;26.60;39.60
38020;DHT22;23829;51.350;17.286;2023-05-19T10:38:26;26.40;40.60
38020;DHT22;23829;51.350;17.286;2023-05-19T10:41:09;26.00;41.60
38020;DHT22;23829;51.350;17.286;2023-05-19T10:46:25;26.90;40.50
38020;DHT22;23829;51.350;17.286;2023-05-19T10:48:53;27.10;40.20
38020;DHT22;23829;51.350;17.286;2023-05-19T10:51:27;27.20;39.20
38020;DHT22;23829;51.350;17.286;2023-05-19T10:53:53;27.60;39.10
38020;DHT22;23829;51.350;17.286;2023-05-19T10:56:30;26.60;39.80
38020;DHT22;23829;51.350;17.286;2023-05-19T10:59:00;26.80;39.70
38020;DHT22;23829;51.350;17.286;2023-05-19T11:01:34;26.20;40.80
38020;DHT22;23829;51.350;17.286;2023-05-19T11:04:08;26.40;40.10
38020;DHT22;23829;51.350;17.286;2023-05-19T11:06:37;26.70;40.70
38020;DHT22;23829;51.350;17.286;2023-05-19T11:09:17;27.20;39.30
38020;DHT22;23829;51.350;17.286;2023-05-19T11:14:25;26.50;40.10
38020;DHT22;23829;51.350;17.286;2023-05-19T11:16:56;25.60;41.40
38020;DHT22;23829;51.350;17.286;2023-05-19T11:19:30;25.70;41.90
38020;DHT22;23829;51.350;17.286;2023-05-19T11:22:21;26.30;40.70
38020;DHT22;23829;51.350;17.286;2023-05-19T11:24:48;26.20;40.60
38020;DHT22;23829;51.350;17.286;2023-05-19T11:27:28;26.40;40.90
38020;DHT22;23829;51.350;17.286;2023-05-19T11:30:08;26.80;40.20
38020;DHT22;23829;51.350;17.286;2023-05-19T11:32:43;26.40;40.50
38020;DHT22;23829;51.350;17.286;2023-05-19T11:35:13;26.40;40.10
38020;DHT22;23829;51.350;17.286;2023-05-19T11:37:41;26.30;40.50
38020;DHT22;23829;51.350;17.286;2023-05-19T11:40:09;26.70;39.60
38020;DHT22;23829;51.350;17.286;2023-05-19T11:42:36;26.70;39.60
38020;DHT22;23829;51.350;17.286;2023-05-19T11:45:03;26.80;39.50
38020;DHT22;23829;51.350;17.286;2023-05-19T11:47:30;26.70;39.30
38020;DHT22;23829;51.350;17.286;2023-05-19T11:50:00;26.60;39.60
38020;DHT22;23829;51.350;17.286;2023-05-19T11:52:26;26.50;40.30
38020;DHT22;23829;51.350;17.286;2023-05-19T11:54:53;26.70;39.70
38020;DHT22;23829;51.350;17.286;2023-05-19T11:57:19;26.70;39.70
38020;DHT22;23829;51.350;17.286;2023-05-19T11:59:46;26.80;39.60
38020;DHT22;23829;51.350;17.286;2023-05-19T12:02:16;26.80;39.80
38020;DHT22;23829;51.350;17.286;2023-05-19T12:04:44;26.60;39.70
38020;DHT22;23829;51.350;17.286;2023-05-19T12:07:11;26.80;38.80
38020;DHT22;23829;51.350;17.286;2023-05-19T12:09:38;26.50;39.50
38020;DHT22;23829;51.350;17.286;2023-05-19T12:12:05;26.70;39.70
38020;DHT22;23829;51.350;17.286;2023-05-19T12:14:32;27.10;38.60
38020;DHT22;23829;51.350;17.286;2023-05-19T12:17:12;26.80;39.80
38020;DHT22;23829;51.350;17.286;2023-05-19T12:19:41;26.80;39.70
38020;DHT22;23829;51.350;17.286;2023-05-19T12:22:08;26.70;39.80
38020;DHT22;23829;51.350;17.286;2023-05-19T12:24:36;27.10;39.00
38020;DHT22;23829;51.350;17.286;2023-05-19T12:27:20;26.80;39.20
38020;DHT22;23829;51.350;17.286;2023-05-19T12:29:49;26.70;39.80
38020;DHT22;23829;51.350;17.286;2023-05-19T12:32:25;26.80;39.80
38020;DHT22;23829;51.350;17.286;2023-05-19T12:34:54;26.90;39.50
38020;DHT22;23829;51.350;17.286;2023-05-19T12:37:21;27.00;39.80
38020;DHT22;23829;51.350;17.286;2023-05-19T12:39:48;27.10;39.50
38020;DHT22;23829;51.350;17.286;2023-05-19T12:42:15;27.60;39.00
38020;DHT22;23829;51.350;17.286;2023-05-19T12:44:49;27.40;39.60
38020;DHT22;23829;51.350;17.286;2023-05-19T12:47:18;27.30;39.60
38020;DHT22;23829;51.350;17.286;2023-05-19T12:52:31;27.50;39.20
38020;DHT22;23829;51.350;17.286;2023-05-19T12:55:05;27.70;38.60
38020;DHT22;23829;51.350;17.286;2023-05-19T12:57:37;28.00;38.40
38020;DHT22;23829;51.350;17.286;2023-05-19T13:00:18;27.90;38.20
38020;DHT22;23829;51.350;17.286;2023-05-19T13:03:04;27.60;38.30
38020;DHT22;23829;51.350;17.286;2023-05-19T13:05:33;28.00;37.50
38020;DHT22;23829;51.350;17.286;2023-05-19T13:08:05;27.70;37.60
38020;DHT22;23829;51.350;17.286;2023-05-19T13:10:32;27.70;38.10
38020;DHT22;23829;51.350;17.286;2023-05-19T13:12:59;27.30;38.80
38020;DHT22;23829;51.350;17.286;2023-05-19T13:15:28;26.50;39.60
38020;DHT22;23829;51.350;17.286;2023-05-19T13:17:58;26.00;40.60
38020;DHT22;23829;51.350;17.286;2023-05-19T13:20:25;26.10;40.90
38020;DHT22;23829;51.350;17.286;2023-05-19T13:22:51;26.60;40.20
38020;DHT22;23829;51.350;17.286;2023-05-19T13:25:18;26.10;40.90
38020;DHT22;23829;51.350;17.286;2023-05-19T13:27:46;26.00;40.90
38020;DHT22;23829;51.350;17.286;2023-05-19T13:30:14;26.60;39.80
38020;DHT22;23829;51.350;17.286;2023-05-19T13:32:44;26.70;39.80
38020;DHT22;23829;51.350;17.286;2023-05-19T13:35:11;26.60;39.90
38020;DHT22;23829;51.350;17.286;2023-05-19T13:37:38;26.40;40.60
38020;DHT22;23829;51.350;17.286;2023-05-19T13:40:05;26.70;40.40
38020;DHT22;23829;51.350;17.286;2023-05-19T13:42:32;26.60;40.20
38020;DHT22;23829;51.350;17.286;2023-05-19T13:44:59;26.60;40.00
38020;DHT22;23829;51.350;17.286;2023-05-19T13:47:25;26.90;40.00
38020;DHT22;23829;51.350;17.286;2023-05-19T13:49:53;27.10;39.80
38020;DHT22;23829;51.350;17.286;2023-05-19T13:52:20;27.60;39.00
38020;DHT22;23829;51.350;17.286;2023-05-19T13:54:47;27.50;39.20
38020;DHT22;23829;51.350;17.286;2023-05-19T13:57:14;28.10;38.60
38020;DHT22;23829;51.350;17.286;2023-05-19T13:59:41;28.20;38.00
38020;DHT22;23829;51.350;17.286;2023-05-19T14:02:08;27.90;38.30
38020;DHT22;23829;51.350;17.286;2023-05-19T14:04:38;28.00;37.80
38020;DHT22;23829;51.350;17.286;2023-05-19T14:07:05;27.50;38.70
38020;DHT22;23829;51.350;17.286;2023-05-19T14:09:32;28.30;37.70
38020;DHT22;23829;51.350;17.286;2023-05-19T14:11:58;28.00;38.10
38020;DHT22;23829;51.350;17.286;2023-05-19T14:14:25;27.70;38.30
38020;DHT22;23829;51.350;17.286;2023-05-19T14:16:51;27.70;38.50
38020;DHT22;23829;51.350;17.286;2023-05-19T14:19:18;27.40;38.80
38020;DHT22;23829;51.350;17.286;2023-05-19T14:21:44;27.30;39.10
38020;DHT22;23829;51.350;17.286;2023-05-19T14:24:11;27.80;38.70
38020;DHT22;23829;51.350;17.286;2023-05-19T14:26:37;27.80;38.10
38020;DHT22;23829;51.350;17.286;2023-05-19T14:29:04;28.00;38.10
38020;DHT22;23829;51.350;17.286;2023-05-19T14:31:31;27.90;37.70
38020;DHT22;23829;51.350;17.286;2023-05-19T14:34:01;27.60;38.50
38020;DHT22;23829;51.350;17.286;2023-05-19T14:36:30;27.60;38.70
38020;DHT22;23829;51.350;17.286;2023-05-19T14:38:58;27.50;38.70
38020;DHT22;23829;51.350;17.286;2023-05-19T14:41:24;28.10;38.00
38020;DHT22;23829;51.350;17.286;2023-05-19T14:43:52;28.30;37.30
38020;DHT22;23829;51.350;17.286;2023-05-19T14:46:18;28.10;37.70
38020;DHT22;23829;51.350;17.286;2023-05-19T14:48:46;28.10;37.60
38020;DHT22;23829;51.350;17.286;2023-05-19T14:51:12;28.00;37.90
38020;DHT22;23829;51.350;17.286;2023-05-19T14:53:39;28.40;37.70
38020;DHT22;23829;51.350;17.286;2023-05-19T14:56:08;28.40;37.40
38020;DHT22;23829;51.350;17.286;2023-05-19T14:58:35;28.30;38.00
38020;DHT22;23829;51.350;17.286;2023-05-19T15:01:01;28.30;38.10
38020;DHT22;23829;51.350;17.286;2023-05-19T15:03:28;28.40;37.30
38020;DHT22;23829;51.350;17.286;2023-05-19T15:05:54;28.30;37.80
38020;DHT22;23829;51.350;17.286;2023-05-19T15:08:20;28.80;37.20
38020;DHT22;23829;51.350;17.286;2023-05-19T15:10:48;28.60;37.50
38020;DHT22;23829;51.350;17.286;2023-05-19T15:13:15;28.50;37.20
38020;DHT22;23829;51.350;17.286;2023-05-19T15:15:44;28.00;38.00
38020;DHT22;23829;51.350;17.286;2023-05-19T15:18:11;28.20;37.80
38020;DHT22;23829;51.350;17.286;2023-05-19T15:20:38;28.40;37.40
38020;DHT22;23829;51.350;17.286;2023-05-19T15:23:04;28.50;37.30
38020;DHT22;23829;51.350;17.286;2023-05-19T15:25:31;28.60;37.60
38020;DHT22;23829;51.350;17.286;2023-05-19T15:27:57;28.60;37.30
38020;DHT22;23829;51.350;17.286;2023-05-19T15:30:23;28.50;37.40
38020;DHT22;23829;51.350;17.286;2023-05-19T15:32:50;29.00;36.30
38020;DHT22;23829;51.350;17.286;2023-05-19T15:35:16;28.10;37.70
38020;DHT22;23829;51.350;17.286;2023-05-19T15:37:43;28.30;37.50
38020;DHT22;23829;51.350;17.286;2023-05-19T15:40:10;27.50;38.50
38020;DHT22;23829;51.350;17.286;2023-05-19T15:42:37;27.90;38.60
38020;DHT22;23829;51.350;17.286;2023-05-19T15:45:04;27.90;38.50
38020;DHT22;23829;51.350;17.286;2023-05-19T15:47:31;27.40;39.40
38020;DHT22;23829;51.350;17.286;2023-05-19T15:49:57;27.70;39.10
38020;DHT22;23829;51.350;17.286;2023-05-19T15:52:24;27.80;38.20
38020;DHT22;23829;51.350;17.286;2023-05-19T15:54:50;27.40;39.00
38020;DHT22;23829;51.350;17.286;2023-05-19T15:57:17;27.20;39.20
38020;DHT22;23829;51.350;17.286;2023-05-19T15:59:43;27.20;39.50
38020;DHT22;23829;51.350;17.286;2023-05-19T16:02:10;27.30;40.00
38020;DHT22;23829;51.350;17.286;2023-05-19T16:04:37;27.90;38.60
38020;DHT22;23829;51.350;17.286;2023-05-19T16:07:03;28.10;39.10
38020;DHT22;23829;51.350;17.286;2023-05-19T16:09:30;28.00;38.60
38020;DHT22;23829;51.350;17.286;2023-05-19T16:11:56;27.80;39.70
38020;DHT22;23829;51.350;17.286;2023-05-19T16:14:23;27.70;39.40
38020;DHT22;23829;51.350;17.286;2023-05-19T16:16:49;27.70;39.50
38020;DHT22;23829;51.350;17.286;2023-05-19T16:19:16;27.80;39.30
38020;DHT22;23829;51.350;17.286;2023-05-19T16:21:42;27.70;39.20
38020;DHT22;23829;51.350;17.286;2023-05-19T16:24:08;28.30;38.40
38020;DHT22;23829;51.350;17.286;2023-05-19T16:26:35;27.90;38.90
38020;DHT22;23829;51.350;17.286;2023-05-19T16:29:01;27.80;38.80
38020;DHT22;23829;51.350;17.286;2023-05-19T16:31:28;27.70;38.90
38020;DHT22;23829;51.350;17.286;2023-05-19T16:33:54;27.00;39.90
38020;DHT22;23829;51.350;17.286;2023-05-19T16:36:21;26.40;40.70
38020;DHT22;23829;51.350;17.286;2023-05-19T16:38:47;27.00;40.10
38020;DHT22;23829;51.350;17.286;2023-05-19T16:41:14;27.20;40.20
38020;DHT22;23829;51.350;17.286;2023-05-19T16:43:40;27.10;39.50
38020;DHT22;23829;51.350;17.286;2023-05-19T16:46:07;26.80;40.40
38020;DHT22;23829;51.350;17.286;2023-05-19T16:48:34;27.20;40.20
38020;DHT22;23829;51.350;17.286;2023-05-19T16:51:01;27.70;39.60
38020;DHT22;23829;51.350;17.286;2023-05-19T16:53:27;28.00;38.80
38020;DHT22;23829;51.350;17.286;2023-05-19T16:55:54;27.40;39.20
38020;DHT22;23829;51.350;17.286;2023-05-19T16:58:20;27.10;39.70
38020;DHT22;23829;51.350;17.286;2023-05-19T17:00:50;27.00;40.00
38020;DHT22;23829;51.350;17.286;2023-05-19T17:03:17;27.50;39.80
38020;DHT22;23829;51.350;17.286;2023-05-19T17:05:44;27.60;39.30
38020;DHT22;23829;51.350;17.286;2023-05-19T17:08:10;27.30;39.40
38020;DHT22;23829;51.350;17.286;2023-05-19T17:10:37;27.40;39.40
38020;DHT22;23829;51.350;17.286;2023-05-19T17:13:04;27.10;40.20
38020;DHT22;23829;51.350;17.286;2023-05-19T17:15:32;27.60;39.60
38020;DHT22;23829;51.350;17.286;2023-05-19T17:17:59;27.40;39.40
38020;DHT22;23829;51.350;17.286;2023-05-19T17:20:26;27.70;39.30
38020;DHT22;23829;51.350;17.286;2023-05-19T17:22:52;27.50;39.40
38020;DHT22;23829;51.350;17.286;2023-05-19T17:25:19;27.50;39.80
38020;DHT22;23829;51.350;17.286;2023-05-19T17:27:45;28.00;38.80
38020;DHT22;23829;51.350;17.286;2023-05-19T17:30:12;28.00;39.00
38020;DHT22;23829;51.350;17.286;2023-05-19T17:32:38;28.20;38.60
38020;DHT22;23829;51.350;17.286;2023-05-19T17:35:06;27.70;39.10
38020;DHT22;23829;51.350;17.286;2023-05-19T17:37:32;27.60;39.00